ROI1202 SVMI-TNCC
Flight info
| Callsign | ROI1202 |
|---|---|
| Flight time | 0h 36m |
| Altitude | 24000 |
| Route | MARES1 MARES A315 AVELO/N0375F180 A315 OVILA DCT EMAPA EMAPA1B |
| Aircraft | B736/M-SDE2E3FGHIRWXY/LB1 |
Departure
| Time | 2026-04-23 11:17 |
|---|---|
| Airport | Maiquetía Simón Bolívar International Airport (SVMI) |
Arrival
| Time | 2026-04-23 11:53 |
|---|---|
| Airport | Hato International Airport (TNCC) |
| Time | Latitude | Longitude | Altitude | Speed | Heading |
|---|---|---|---|---|---|
| 2026-04-23 11:01 | 10.59832 | -67.00581 | 212 ft | 0 kts | 178° |
| 2026-04-23 11:07 | 10.59850 | -67.00581 | 229 ft | 4 kts | 176° |
| 2026-04-23 11:07 | 10.59876 | -67.00584 | 229 ft | 4 kts | 171° |
| 2026-04-23 11:07 | 10.59903 | -67.00590 | 229 ft | 4 kts | 152° |
| 2026-04-23 11:08 | 10.59916 | -67.00605 | 232 ft | 1 kts | 88° |
| 2026-04-23 11:08 | 10.59916 | -67.00606 | 232 ft | 1 kts | 88° |
| 2026-04-23 11:11 | 10.59916 | -67.00604 | 232 ft | 1 kts | 88° |
| 2026-04-23 11:11 | 10.59917 | -67.00575 | 230 ft | 7 kts | 88° |
| 2026-04-23 11:12 | 10.59941 | -67.00524 | 228 ft | 9 kts | 26° |
| 2026-04-23 11:12 | 10.59997 | -67.00492 | 227 ft | 12 kts | 72° |
| 2026-04-23 11:12 | 10.60002 | -67.00388 | 225 ft | 16 kts | 89° |
| 2026-04-23 11:12 | 10.60010 | -67.00311 | 225 ft | 16 kts | 63° |
| 2026-04-23 11:13 | 10.60118 | -67.00260 | 223 ft | 7 kts | 74° |
| 2026-04-23 11:13 | 10.60117 | -67.00226 | 222 ft | 7 kts | 93° |
| 2026-04-23 11:13 | 10.60116 | -67.00154 | 221 ft | 10 kts | 89° |
| 2026-04-23 11:13 | 10.60118 | -67.00096 | 220 ft | 15 kts | 88° |
| 2026-04-23 11:14 | 10.60123 | -66.99966 | 225 ft | 21 kts | 87° |
| 2026-04-23 11:14 | 10.60135 | -66.99816 | 213 ft | 22 kts | 87° |
| 2026-04-23 11:14 | 10.60137 | -66.99692 | 214 ft | 14 kts | 102° |
| 2026-04-23 11:14 | 10.60059 | -66.99665 | 217 ft | 9 kts | 179° |
| 2026-04-23 11:15 | 10.59994 | -66.99664 | 220 ft | 9 kts | 178° |
| 2026-04-23 11:15 | 10.59932 | -66.99663 | 220 ft | 9 kts | 178° |
| 2026-04-23 11:15 | 10.59903 | -66.99632 | 218 ft | 2 kts | 75° |
| 2026-04-23 11:15 | 10.59906 | -66.99619 | 215 ft | 1 kts | 75° |
| 2026-04-23 11:16 | 10.59927 | -66.99536 | 213 ft | 39 kts | 76° |
| 2026-04-23 11:16 | 10.60060 | -66.99005 | 185 ft | 113 kts | 76° |
| 2026-04-23 11:16 | 10.60293 | -66.98043 | 221 ft | 161 kts | 76° |
| 2026-04-23 11:16 | 10.60567 | -66.96923 | 822 ft | 161 kts | 76° |
| 2026-04-23 11:17 | 10.61071 | -66.95914 | 1439 ft | 171 kts | 39° |
| 2026-04-23 11:17 | 10.62122 | -66.95426 | 2071 ft | 172 kts | 16° |
| 2026-04-23 11:17 | 10.63416 | -66.95280 | 2334 ft | 203 kts | 354° |
| 2026-04-23 11:17 | 10.64792 | -66.95811 | 2562 ft | 230 kts | 324° |
| 2026-04-23 11:18 | 10.65850 | -66.97136 | 2801 ft | 259 kts | 293° |
| 2026-04-23 11:18 | 10.66168 | -66.98959 | 3507 ft | 262 kts | 274° |
| 2026-04-23 11:18 | 10.66451 | -67.00828 | 3909 ft | 268 kts | 285° |
| 2026-04-23 11:18 | 10.66918 | -67.02709 | 3991 ft | 279 kts | 284° |
| 2026-04-23 11:19 | 10.67350 | -67.04614 | 3995 ft | 276 kts | 283° |
| 2026-04-23 11:19 | 10.67749 | -67.06518 | 3994 ft | 274 kts | 283° |
| 2026-04-23 11:19 | 10.68410 | -67.08309 | 3987 ft | 271 kts | 305° |
| 2026-04-23 11:19 | 10.69571 | -67.09811 | 4042 ft | 271 kts | 311° |
| 2026-04-23 11:20 | 10.70799 | -67.11310 | 4495 ft | 278 kts | 310° |
| 2026-04-23 11:20 | 10.72038 | -67.12822 | 5342 ft | 278 kts | 311° |
| 2026-04-23 11:20 | 10.73279 | -67.14336 | 6201 ft | 279 kts | 310° |
| 2026-04-23 11:20 | 10.74505 | -67.15839 | 7026 ft | 281 kts | 310° |
| 2026-04-23 11:21 | 10.75750 | -67.17376 | 7850 ft | 283 kts | 309° |
| 2026-04-23 11:21 | 10.77005 | -67.18927 | 8716 ft | 285 kts | 309° |
| 2026-04-23 11:21 | 10.78273 | -67.20496 | 9618 ft | 288 kts | 309° |
| 2026-04-23 11:21 | 10.79545 | -67.22091 | 10439 ft | 294 kts | 307° |
| 2026-04-23 11:22 | 10.80839 | -67.23811 | 10730 ft | 320 kts | 306° |
| 2026-04-23 11:22 | 10.82214 | -67.25680 | 11136 ft | 336 kts | 306° |
| 2026-04-23 11:22 | 10.83623 | -67.27600 | 11845 ft | 342 kts | 306° |
| 2026-04-23 11:22 | 10.85062 | -67.29556 | 12598 ft | 347 kts | 306° |
| 2026-04-23 11:23 | 10.86518 | -67.31529 | 13402 ft | 350 kts | 306° |
| 2026-04-23 11:23 | 10.87992 | -67.33524 | 14143 ft | 355 kts | 306° |
| 2026-04-23 11:23 | 10.89490 | -67.35549 | 14813 ft | 360 kts | 306° |
| 2026-04-23 11:23 | 10.91001 | -67.37589 | 15551 ft | 363 kts | 306° |
| 2026-04-23 11:24 | 10.92539 | -67.39667 | 16165 ft | 370 kts | 306° |
| 2026-04-23 11:24 | 10.94095 | -67.41769 | 16816 ft | 375 kts | 306° |
| 2026-04-23 11:24 | 10.95676 | -67.43904 | 17486 ft | 379 kts | 307° |
| 2026-04-23 11:24 | 10.97272 | -67.46061 | 18154 ft | 383 kts | 307° |
| 2026-04-23 11:25 | 10.98889 | -67.48246 | 18716 ft | 388 kts | 307° |
| 2026-04-23 11:25 | 11.00558 | -67.50417 | 19271 ft | 392 kts | 309° |
| 2026-04-23 11:25 | 11.02304 | -67.52567 | 19824 ft | 396 kts | 309° |
| 2026-04-23 11:25 | 11.04085 | -67.54720 | 20375 ft | 399 kts | 310° |
| 2026-04-23 11:26 | 11.05884 | -67.56892 | 20928 ft | 403 kts | 310° |
| 2026-04-23 11:26 | 11.07695 | -67.59087 | 21474 ft | 406 kts | 309° |
| 2026-04-23 11:26 | 11.09517 | -67.61306 | 22015 ft | 410 kts | 309° |
| 2026-04-23 11:26 | 11.11312 | -67.63500 | 22700 ft | 409 kts | 309° |
| 2026-04-23 11:27 | 11.13131 | -67.65730 | 23446 ft | 407 kts | 309° |
| 2026-04-23 11:27 | 11.14941 | -67.67951 | 23834 ft | 406 kts | 309° |
| 2026-04-23 11:27 | 11.16744 | -67.70166 | 23967 ft | 406 kts | 309° |
| 2026-04-23 11:27 | 11.18550 | -67.72386 | 23963 ft | 406 kts | 309° |
| 2026-04-23 11:28 | 11.20349 | -67.74597 | 23972 ft | 406 kts | 309° |
| 2026-04-23 11:28 | 11.22148 | -67.76808 | 23979 ft | 405 kts | 309° |
| 2026-04-23 11:28 | 11.23950 | -67.79024 | 23981 ft | 405 kts | 309° |
| 2026-04-23 11:28 | 11.25747 | -67.81234 | 23978 ft | 405 kts | 309° |
| 2026-04-23 11:29 | 11.27551 | -67.83453 | 23978 ft | 406 kts | 309° |
| 2026-04-23 11:29 | 11.29328 | -67.85640 | 23976 ft | 406 kts | 309° |
| 2026-04-23 11:29 | 11.31130 | -67.87857 | 23973 ft | 406 kts | 309° |
| 2026-04-23 11:29 | 11.32929 | -67.90072 | 23968 ft | 406 kts | 309° |
| 2026-04-23 11:30 | 11.34756 | -67.92321 | 23969 ft | 406 kts | 309° |
| 2026-04-23 11:30 | 11.36558 | -67.94540 | 23973 ft | 406 kts | 309° |
| 2026-04-23 11:30 | 11.38282 | -67.96663 | 23970 ft | 406 kts | 309° |
| 2026-04-23 11:30 | 11.40088 | -67.98888 | 23972 ft | 406 kts | 309° |
| 2026-04-23 11:31 | 11.41891 | -68.01110 | 23973 ft | 406 kts | 309° |
| 2026-04-23 11:31 | 11.43673 | -68.03351 | 23971 ft | 406 kts | 308° |
| 2026-04-23 11:31 | 11.45414 | -68.05580 | 23972 ft | 406 kts | 308° |
| 2026-04-23 11:31 | 11.47163 | -68.07833 | 23973 ft | 405 kts | 308° |
| 2026-04-23 11:32 | 11.48914 | -68.10090 | 23970 ft | 405 kts | 308° |
| 2026-04-23 11:32 | 11.50665 | -68.12344 | 23974 ft | 405 kts | 308° |
| 2026-04-23 11:32 | 11.52417 | -68.14595 | 23974 ft | 405 kts | 308° |
| 2026-04-23 11:32 | 11.54167 | -68.16841 | 23964 ft | 401 kts | 308° |
| 2026-04-23 11:33 | 11.55887 | -68.19048 | 23965 ft | 395 kts | 308° |
| 2026-04-23 11:33 | 11.57594 | -68.21238 | 23966 ft | 393 kts | 308° |
| 2026-04-23 11:33 | 11.59301 | -68.23429 | 23978 ft | 395 kts | 308° |
| 2026-04-23 11:33 | 11.61009 | -68.25620 | 23870 ft | 396 kts | 308° |
| 2026-04-23 11:34 | 11.62725 | -68.27824 | 23510 ft | 395 kts | 308° |
| 2026-04-23 11:34 | 11.64429 | -68.30013 | 23021 ft | 393 kts | 308° |
| 2026-04-23 11:34 | 11.66119 | -68.32184 | 22551 ft | 389 kts | 308° |
| 2026-04-23 11:34 | 11.67794 | -68.34334 | 22091 ft | 385 kts | 308° |
| 2026-04-23 11:35 | 11.69449 | -68.36461 | 21637 ft | 381 kts | 308° |
| 2026-04-23 11:35 | 11.71063 | -68.38589 | 21184 ft | 377 kts | 304° |
| 2026-04-23 11:35 | 11.72359 | -68.40905 | 20727 ft | 374 kts | 294° |
| 2026-04-23 11:35 | 11.73243 | -68.43395 | 20243 ft | 373 kts | 286° |
| 2026-04-23 11:36 | 11.73947 | -68.45903 | 19780 ft | 371 kts | 285° |
| 2026-04-23 11:36 | 11.74629 | -68.48435 | 19334 ft | 368 kts | 285° |
| 2026-04-23 11:36 | 11.75303 | -68.50950 | 18881 ft | 367 kts | 285° |
| 2026-04-23 11:36 | 11.75979 | -68.53453 | 18425 ft | 365 kts | 285° |
| 2026-04-23 11:37 | 11.76660 | -68.55948 | 17938 ft | 363 kts | 285° |
| 2026-04-23 11:37 | 11.77340 | -68.58420 | 17471 ft | 360 kts | 285° |
| 2026-04-23 11:37 | 11.78009 | -68.60841 | 17019 ft | 357 kts | 285° |
| 2026-04-23 11:37 | 11.78683 | -68.63271 | 16577 ft | 354 kts | 285° |
| 2026-04-23 11:38 | 11.79351 | -68.65676 | 16152 ft | 351 kts | 285° |
| 2026-04-23 11:38 | 11.80013 | -68.68060 | 15712 ft | 348 kts | 285° |
| 2026-04-23 11:38 | 11.80671 | -68.70430 | 15287 ft | 345 kts | 285° |
| 2026-04-23 11:38 | 11.81326 | -68.72789 | 14861 ft | 343 kts | 285° |
| 2026-04-23 11:39 | 11.81976 | -68.75132 | 14431 ft | 341 kts | 285° |
| 2026-04-23 11:39 | 11.82621 | -68.77457 | 13998 ft | 340 kts | 285° |
| 2026-04-23 11:39 | 11.83264 | -68.79774 | 13540 ft | 338 kts | 285° |
| 2026-04-23 11:39 | 11.83901 | -68.82074 | 13089 ft | 335 kts | 285° |
| 2026-04-23 11:40 | 11.84527 | -68.84333 | 12660 ft | 333 kts | 285° |
| 2026-04-23 11:40 | 11.85154 | -68.86597 | 12234 ft | 330 kts | 286° |
| 2026-04-23 11:40 | 11.85777 | -68.88845 | 11815 ft | 327 kts | 286° |
| 2026-04-23 11:40 | 11.86393 | -68.91071 | 11406 ft | 325 kts | 286° |
| 2026-04-23 11:41 | 11.87007 | -68.93290 | 10995 ft | 323 kts | 286° |
| 2026-04-23 11:41 | 11.87615 | -68.95487 | 10579 ft | 321 kts | 286° |
| 2026-04-23 11:41 | 11.88216 | -68.97660 | 10343 ft | 313 kts | 286° |
| 2026-04-23 11:41 | 11.88808 | -68.99800 | 9816 ft | 314 kts | 286° |
| 2026-04-23 11:42 | 11.89373 | -69.01846 | 9841 ft | 288 kts | 286° |
| 2026-04-23 11:42 | 11.89909 | -69.03787 | 9651 ft | 280 kts | 287° |
| 2026-04-23 11:42 | 11.90438 | -69.05701 | 9304 ft | 280 kts | 286° |
| 2026-04-23 11:42 | 11.90961 | -69.07595 | 8964 ft | 280 kts | 286° |
| 2026-04-23 11:43 | 11.91488 | -69.09502 | 8649 ft | 278 kts | 286° |
| 2026-04-23 11:43 | 11.92010 | -69.11391 | 8335 ft | 277 kts | 286° |
| 2026-04-23 11:43 | 11.92534 | -69.13288 | 8015 ft | 276 kts | 286° |
| 2026-04-23 11:43 | 11.93053 | -69.15173 | 7706 ft | 275 kts | 286° |
| 2026-04-23 11:44 | 11.93572 | -69.17052 | 7398 ft | 275 kts | 286° |
| 2026-04-23 11:44 | 11.94095 | -69.18915 | 7076 ft | 270 kts | 289° |
| 2026-04-23 11:44 | 11.95069 | -69.20529 | 6516 ft | 270 kts | 317° |
| 2026-04-23 11:44 | 11.96683 | -69.21473 | 5992 ft | 268 kts | 346° |
| 2026-04-23 11:45 | 11.98519 | -69.21581 | 5505 ft | 263 kts | 11° |
| 2026-04-23 11:45 | 12.00277 | -69.21129 | 5050 ft | 260 kts | 18° |
| 2026-04-23 11:45 | 12.02020 | -69.20592 | 4730 ft | 260 kts | 19° |
| 2026-04-23 11:45 | 12.03716 | -69.20062 | 4488 ft | 257 kts | 19° |
| 2026-04-23 11:46 | 12.05423 | -69.19535 | 4173 ft | 257 kts | 19° |
| 2026-04-23 11:46 | 12.07133 | -69.19016 | 3871 ft | 256 kts | 18° |
| 2026-04-23 11:46 | 12.08830 | -69.18505 | 3589 ft | 254 kts | 19° |
| 2026-04-23 11:46 | 12.10525 | -69.17998 | 3297 ft | 254 kts | 18° |
| 2026-04-23 11:47 | 12.12223 | -69.17490 | 3042 ft | 254 kts | 18° |
| 2026-04-23 11:47 | 12.13930 | -69.17015 | 2931 ft | 254 kts | 15° |
| 2026-04-23 11:47 | 12.15628 | -69.16646 | 2820 ft | 245 kts | 14° |
| 2026-04-23 11:47 | 12.17254 | -69.16307 | 2708 ft | 230 kts | 14° |
| 2026-04-23 11:48 | 12.18772 | -69.15987 | 2618 ft | 215 kts | 14° |
| 2026-04-23 11:48 | 12.20192 | -69.15684 | 2537 ft | 202 kts | 15° |
| 2026-04-23 11:48 | 12.21462 | -69.15240 | 2452 ft | 186 kts | 43° |
| 2026-04-23 11:48 | 12.22020 | -69.14164 | 2435 ft | 172 kts | 87° |
| 2026-04-23 11:49 | 12.22073 | -69.12983 | 2380 ft | 166 kts | 86° |
| 2026-04-23 11:49 | 12.22063 | -69.11837 | 2277 ft | 158 kts | 95° |
| 2026-04-23 11:49 | 12.21940 | -69.10752 | 2201 ft | 149 kts | 99° |
| 2026-04-23 11:49 | 12.21765 | -69.09722 | 2168 ft | 147 kts | 100° |
| 2026-04-23 11:50 | 12.21573 | -69.08730 | 2092 ft | 136 kts | 101° |
| 2026-04-23 11:50 | 12.21390 | -69.07792 | 2057 ft | 138 kts | 101° |
| 2026-04-23 11:50 | 12.21183 | -69.06851 | 2046 ft | 133 kts | 102° |
| 2026-04-23 11:50 | 12.20975 | -69.05897 | 1894 ft | 139 kts | 102° |
| 2026-04-23 11:51 | 12.20777 | -69.04950 | 1730 ft | 133 kts | 99° |
| 2026-04-23 11:51 | 12.20595 | -69.04017 | 1557 ft | 133 kts | 101° |
| 2026-04-23 11:51 | 12.20400 | -69.03090 | 1312 ft | 134 kts | 102° |
| 2026-04-23 11:51 | 12.20205 | -69.02176 | 1128 ft | 129 kts | 102° |
| 2026-04-23 11:52 | 12.20022 | -69.01296 | 898 ft | 124 kts | 103° |
| 2026-04-23 11:52 | 12.19845 | -69.00444 | 741 ft | 128 kts | 102° |
| 2026-04-23 11:52 | 12.19645 | -68.99522 | 577 ft | 134 kts | 104° |
| 2026-04-23 11:52 | 12.19445 | -68.98606 | 484 ft | 135 kts | 103° |
| 2026-04-23 11:53 | 12.19252 | -68.97635 | 331 ft | 144 kts | 103° |
| 2026-04-23 11:53 | 12.19034 | -68.96649 | 116 ft | 137 kts | 103° |
| 2026-04-23 11:53 | 12.18846 | -68.95775 | 41 ft | 104 kts | 103° |
| 2026-04-23 11:53 | 12.18743 | -68.95273 | 41 ft | 44 kts | 102° |
| 2026-04-23 11:54 | 12.18682 | -68.94985 | 42 ft | 39 kts | 102° |
| 2026-04-23 11:54 | 12.18626 | -68.94726 | 45 ft | 36 kts | 102° |
| 2026-04-23 11:54 | 12.18583 | -68.94513 | 46 ft | 25 kts | 105° |
| 2026-04-23 11:54 | 12.18497 | -68.94469 | 43 ft | 13 kts | 190° |
| 2026-04-23 11:55 | 12.18416 | -68.94500 | 44 ft | 13 kts | 231° |
| 2026-04-23 11:55 | 12.18411 | -68.94571 | 42 ft | 9 kts | 284° |
| 2026-04-23 11:55 | 12.18426 | -68.94632 | 42 ft | 9 kts | 284° |
| 2026-04-23 11:55 | 12.18441 | -68.94692 | 42 ft | 9 kts | 284° |
| 2026-04-23 11:56 | 12.18455 | -68.94758 | 42 ft | 11 kts | 282° |
| 2026-04-23 11:56 | 12.18473 | -68.94844 | 43 ft | 14 kts | 282° |
| 2026-04-23 11:56 | 12.18495 | -68.94949 | 42 ft | 16 kts | 282° |
| 2026-04-23 11:56 | 12.18518 | -68.95059 | 43 ft | 16 kts | 282° |
| 2026-04-23 11:57 | 12.18541 | -68.95165 | 41 ft | 15 kts | 282° |
| 2026-04-23 11:57 | 12.18562 | -68.95266 | 42 ft | 14 kts | 282° |
| 2026-04-23 11:57 | 12.18582 | -68.95363 | 40 ft | 14 kts | 282° |
| 2026-04-23 11:57 | 12.18602 | -68.95456 | 42 ft | 13 kts | 282° |
| 2026-04-23 11:58 | 12.18620 | -68.95544 | 42 ft | 13 kts | 282° |
| 2026-04-23 11:58 | 12.18638 | -68.95628 | 42 ft | 9 kts | 283° |
| 2026-04-23 11:58 | 12.18629 | -68.95664 | 40 ft | 4 kts | 191° |
| 2026-04-23 11:58 | 12.18603 | -68.95669 | 42 ft | 4 kts | 191° |
| 2026-04-23 11:59 | 12.18577 | -68.95674 | 42 ft | 4 kts | 189° |
| 2026-04-23 11:59 | 12.18561 | -68.95678 | 42 ft | 4 kts | 194° |
| 2026-04-23 11:59 | 12.18554 | -68.95679 | 42 ft | 0 kts | 193° |
| 2026-04-23 11:59 | 12.18546 | -68.95681 | 42 ft | 0 kts | 191° |